sensor_id;sensor_type;location;lat;lon;timestamp;P1;durP1;ratioP1;P2;durP2;ratioP2
52488;SDS011;38399;52.236;104.280;2022-10-18T00:02:07;3.90;;;2.50;;
52488;SDS011;38399;52.236;104.280;2022-10-18T00:04:33;8.15;;;2.80;;
52488;SDS011;38399;52.236;104.280;2022-10-18T00:06:59;4.18;;;2.40;;
52488;SDS011;38399;52.236;104.280;2022-10-18T00:09:26;5.13;;;2.33;;
52488;SDS011;38399;52.236;104.280;2022-10-18T00:11:52;4.32;;;2.15;;
52488;SDS011;38399;52.236;104.280;2022-10-18T00:14:20;3.00;;;1.83;;
52488;SDS011;38399;52.236;104.280;2022-10-18T00:16:47;3.75;;;1.63;;
52488;SDS011;38399;52.236;104.280;2022-10-18T00:19:13;2.78;;;1.77;;
52488;SDS011;38399;52.236;104.280;2022-10-18T00:21:39;2.55;;;1.73;;
52488;SDS011;38399;52.236;104.280;2022-10-18T00:24:05;2.45;;;1.75;;
52488;SDS011;38399;52.236;104.280;2022-10-18T00:26:32;5.07;;;1.50;;
52488;SDS011;38399;52.236;104.280;2022-10-18T00:29:00;2.63;;;1.63;;
52488;SDS011;38399;52.236;104.280;2022-10-18T00:31:32;4.70;;;1.48;;
52488;SDS011;38399;52.236;104.280;2022-10-18T00:34:08;2.42;;;1.50;;
52488;SDS011;38399;52.236;104.280;2022-10-18T00:36:38;3.03;;;1.60;;
52488;SDS011;38399;52.236;104.280;2022-10-18T00:39:05;1.65;;;1.33;;
52488;SDS011;38399;52.236;104.280;2022-10-18T00:41:34;2.85;;;1.75;;
52488;SDS011;38399;52.236;104.280;2022-10-18T00:44:06;3.63;;;1.85;;
52488;SDS011;38399;52.236;104.280;2022-10-18T00:46:37;2.20;;;1.48;;
52488;SDS011;38399;52.236;104.280;2022-10-18T00:49:10;5.32;;;1.42;;
52488;SDS011;38399;52.236;104.280;2022-10-18T00:51:41;2.47;;;1.33;;
52488;SDS011;38399;52.236;104.280;2022-10-18T00:54:11;4.53;;;1.70;;
52488;SDS011;38399;52.236;104.280;2022-10-18T00:56:39;5.25;;;4.28;;
52488;SDS011;38399;52.236;104.280;2022-10-18T00:59:06;3.25;;;1.50;;
52488;SDS011;38399;52.236;104.280;2022-10-18T01:01:32;1.90;;;1.58;;
52488;SDS011;38399;52.236;104.280;2022-10-18T01:03:58;2.30;;;1.83;;
52488;SDS011;38399;52.236;104.280;2022-10-18T01:06:26;3.72;;;1.52;;
52488;SDS011;38399;52.236;104.280;2022-10-18T01:08:57;2.00;;;1.48;;
52488;SDS011;38399;52.236;104.280;2022-10-18T01:24:49;2.47;;;1.35;;
52488;SDS011;38399;52.236;104.280;2022-10-18T01:33:04;2.35;;;1.25;;
52488;SDS011;38399;52.236;104.280;2022-10-18T01:35:43;2.00;;;1.27;;
52488;SDS011;38399;52.236;104.280;2022-10-18T01:38:16;3.03;;;1.25;;
52488;SDS011;38399;52.236;104.280;2022-10-18T01:40:46;3.30;;;1.70;;
52488;SDS011;38399;52.236;104.280;2022-10-18T01:43:15;2.22;;;1.80;;
52488;SDS011;38399;52.236;104.280;2022-10-18T01:45:43;1.35;;;1.17;;
52488;SDS011;38399;52.236;104.280;2022-10-18T01:48:11;2.50;;;1.65;;
52488;SDS011;38399;52.236;104.280;2022-10-18T01:50:38;1.40;;;1.10;;
52488;SDS011;38399;52.236;104.280;2022-10-18T01:53:05;2.47;;;1.50;;
52488;SDS011;38399;52.236;104.280;2022-10-18T01:55:39;4.85;;;1.50;;
52488;SDS011;38399;52.236;104.280;2022-10-18T02:00:46;2.28;;;1.45;;
52488;SDS011;38399;52.236;104.280;2022-10-18T02:03:21;1.42;;;0.90;;
52488;SDS011;38399;52.236;104.280;2022-10-18T02:08:27;3.22;;;1.23;;
52488;SDS011;38399;52.236;104.280;2022-10-18T02:11:01;1.77;;;1.10;;
52488;SDS011;38399;52.236;104.280;2022-10-18T02:13:45;2.63;;;1.27;;
52488;SDS011;38399;52.236;104.280;2022-10-18T02:19:17;2.53;;;1.30;;
52488;SDS011;38399;52.236;104.280;2022-10-18T02:21:48;2.22;;;1.30;;
52488;SDS011;38399;52.236;104.280;2022-10-18T02:24:16;2.28;;;1.67;;
52488;SDS011;38399;52.236;104.280;2022-10-18T02:26:44;1.40;;;1.30;;
52488;SDS011;38399;52.236;104.280;2022-10-18T02:29:10;1.60;;;1.40;;
52488;SDS011;38399;52.236;104.280;2022-10-18T02:31:46;2.33;;;1.38;;
52488;SDS011;38399;52.236;104.280;2022-10-18T02:39:19;3.20;;;1.45;;
52488;SDS011;38399;52.236;104.280;2022-10-18T02:41:59;1.70;;;1.58;;
52488;SDS011;38399;52.236;104.280;2022-10-18T02:44:25;3.10;;;1.50;;
52488;SDS011;38399;52.236;104.280;2022-10-18T02:49:18;2.10;;;1.40;;
52488;SDS011;38399;52.236;104.280;2022-10-18T02:51:44;2.33;;;1.60;;
52488;SDS011;38399;52.236;104.280;2022-10-18T02:54:10;3.15;;;1.63;;
52488;SDS011;38399;52.236;104.280;2022-10-18T02:56:37;3.38;;;1.50;;
52488;SDS011;38399;52.236;104.280;2022-10-18T02:59:03;2.08;;;1.60;;
52488;SDS011;38399;52.236;104.280;2022-10-18T03:01:32;2.17;;;1.55;;
52488;SDS011;38399;52.236;104.280;2022-10-18T03:03:59;2.67;;;1.60;;
52488;SDS011;38399;52.236;104.280;2022-10-18T03:06:26;3.60;;;1.67;;
52488;SDS011;38399;52.236;104.280;2022-10-18T03:08:52;2.58;;;1.40;;
52488;SDS011;38399;52.236;104.280;2022-10-18T03:11:19;3.60;;;1.90;;
52488;SDS011;38399;52.236;104.280;2022-10-18T03:13:45;1.75;;;1.50;;
52488;SDS011;38399;52.236;104.280;2022-10-18T03:16:11;1.70;;;1.50;;
52488;SDS011;38399;52.236;104.280;2022-10-18T03:18:37;2.33;;;1.67;;
52488;SDS011;38399;52.236;104.280;2022-10-18T03:21:04;2.67;;;1.80;;
52488;SDS011;38399;52.236;104.280;2022-10-18T03:23:31;7.65;;;2.47;;
52488;SDS011;38399;52.236;104.280;2022-10-18T03:25:57;3.80;;;1.52;;
52488;SDS011;38399;52.236;104.280;2022-10-18T03:30:50;2.83;;;1.92;;
52488;SDS011;38399;52.236;104.280;2022-10-18T03:33:16;5.60;;;1.98;;
52488;SDS011;38399;52.236;104.280;2022-10-18T03:38:08;3.72;;;1.83;;
52488;SDS011;38399;52.236;104.280;2022-10-18T03:40:34;6.70;;;2.33;;
52488;SDS011;38399;52.236;104.280;2022-10-18T03:43:01;7.78;;;2.05;;
52488;SDS011;38399;52.236;104.280;2022-10-18T03:45:27;5.70;;;2.50;;
52488;SDS011;38399;52.236;104.280;2022-10-18T03:47:53;3.40;;;1.95;;
52488;SDS011;38399;52.236;104.280;2022-10-18T03:50:20;5.28;;;1.98;;
52488;SDS011;38399;52.236;104.280;2022-10-18T03:52:46;2.60;;;1.80;;
52488;SDS011;38399;52.236;104.280;2022-10-18T03:57:38;2.28;;;1.83;;
52488;SDS011;38399;52.236;104.280;2022-10-18T04:00:04;2.17;;;1.73;;
52488;SDS011;38399;52.236;104.280;2022-10-18T04:02:37;4.15;;;1.80;;
52488;SDS011;38399;52.236;104.280;2022-10-18T04:05:04;3.72;;;1.52;;
52488;SDS011;38399;52.236;104.280;2022-10-18T04:09:56;1.98;;;1.70;;
52488;SDS011;38399;52.236;104.280;2022-10-18T04:12:22;89.40;;;52.33;;
52488;SDS011;38399;52.236;104.280;2022-10-18T04:14:49;5.95;;;3.10;;
52488;SDS011;38399;52.236;104.280;2022-10-18T04:19:41;4.15;;;2.58;;
52488;SDS011;38399;52.236;104.280;2022-10-18T04:22:07;2.97;;;2.15;;
52488;SDS011;38399;52.236;104.280;2022-10-18T04:24:37;3.38;;;2.22;;
52488;SDS011;38399;52.236;104.280;2022-10-18T04:27:04;2.95;;;1.73;;
52488;SDS011;38399;52.236;104.280;2022-10-18T04:29:31;2.20;;;1.70;;
52488;SDS011;38399;52.236;104.280;2022-10-18T04:31:57;1.85;;;1.58;;
52488;SDS011;38399;52.236;104.280;2022-10-18T04:34:24;5.05;;;2.20;;
52488;SDS011;38399;52.236;104.280;2022-10-18T04:39:16;2.53;;;1.73;;
52488;SDS011;38399;52.236;104.280;2022-10-18T04:41:42;3.15;;;1.60;;
52488;SDS011;38399;52.236;104.280;2022-10-18T04:44:09;3.17;;;1.75;;
52488;SDS011;38399;52.236;104.280;2022-10-18T04:49:01;6.15;;;1.90;;
52488;SDS011;38399;52.236;104.280;2022-10-18T04:51:28;4.00;;;1.85;;
52488;SDS011;38399;52.236;104.280;2022-10-18T04:53:54;2.65;;;1.80;;
52488;SDS011;38399;52.236;104.280;2022-10-18T04:56:21;4.93;;;2.05;;
52488;SDS011;38399;52.236;104.280;2022-10-18T05:01:13;2.45;;;1.77;;
52488;SDS011;38399;52.236;104.280;2022-10-18T05:03:40;3.03;;;2.10;;
52488;SDS011;38399;52.236;104.280;2022-10-18T05:06:06;3.95;;;2.80;;
52488;SDS011;38399;52.236;104.280;2022-10-18T05:08:33;5.88;;;3.40;;
52488;SDS011;38399;52.236;104.280;2022-10-18T05:11:00;5.28;;;2.55;;
52488;SDS011;38399;52.236;104.280;2022-10-18T05:13:27;7.32;;;3.30;;
52488;SDS011;38399;52.236;104.280;2022-10-18T05:15:53;4.88;;;3.13;;
52488;SDS011;38399;52.236;104.280;2022-10-18T05:18:20;13.10;;;3.40;;
52488;SDS011;38399;52.236;104.280;2022-10-18T05:20:46;4.55;;;2.85;;
52488;SDS011;38399;52.236;104.280;2022-10-18T05:23:13;4.78;;;3.17;;
52488;SDS011;38399;52.236;104.280;2022-10-18T05:25:39;8.73;;;3.63;;
52488;SDS011;38399;52.236;104.280;2022-10-18T05:28:07;5.65;;;3.35;;
52488;SDS011;38399;52.236;104.280;2022-10-18T05:30:37;6.53;;;3.17;;
52488;SDS011;38399;52.236;104.280;2022-10-18T05:33:04;7.22;;;3.10;;
52488;SDS011;38399;52.236;104.280;2022-10-18T05:35:31;4.38;;;2.90;;
52488;SDS011;38399;52.236;104.280;2022-10-18T05:40:23;4.78;;;2.53;;
52488;SDS011;38399;52.236;104.280;2022-10-18T05:42:52;4.47;;;2.10;;
52488;SDS011;38399;52.236;104.280;2022-10-18T05:45:18;3.65;;;2.05;;
52488;SDS011;38399;52.236;104.280;2022-10-18T05:47:45;3.65;;;2.30;;
52488;SDS011;38399;52.236;104.280;2022-10-18T05:50:11;4.22;;;2.42;;
52488;SDS011;38399;52.236;104.280;2022-10-18T05:52:37;2.40;;;1.70;;
52488;SDS011;38399;52.236;104.280;2022-10-18T05:55:03;1.92;;;1.70;;
52488;SDS011;38399;52.236;104.280;2022-10-18T05:59:57;3.30;;;2.10;;
52488;SDS011;38399;52.236;104.280;2022-10-18T06:02:23;2.60;;;1.75;;
52488;SDS011;38399;52.236;104.280;2022-10-18T06:04:49;4.05;;;1.85;;
52488;SDS011;38399;52.236;104.280;2022-10-18T06:07:16;3.85;;;2.10;;
52488;SDS011;38399;52.236;104.280;2022-10-18T06:09:42;4.13;;;2.00;;
52488;SDS011;38399;52.236;104.280;2022-10-18T06:12:08;6.97;;;2.47;;
52488;SDS011;38399;52.236;104.280;2022-10-18T06:14:35;4.20;;;2.05;;
52488;SDS011;38399;52.236;104.280;2022-10-18T06:17:02;6.43;;;2.38;;
52488;SDS011;38399;52.236;104.280;2022-10-18T06:19:29;5.32;;;2.88;;
52488;SDS011;38399;52.236;104.280;2022-10-18T06:21:55;5.00;;;2.55;;
52488;SDS011;38399;52.236;104.280;2022-10-18T06:24:21;5.68;;;3.03;;
52488;SDS011;38399;52.236;104.280;2022-10-18T06:26:47;4.65;;;2.65;;
52488;SDS011;38399;52.236;104.280;2022-10-18T06:29:14;4.40;;;2.53;;
52488;SDS011;38399;52.236;104.280;2022-10-18T06:31:40;4.00;;;3.13;;
52488;SDS011;38399;52.236;104.280;2022-10-18T06:34:07;5.15;;;2.38;;
52488;SDS011;38399;52.236;104.280;2022-10-18T06:36:33;5.40;;;2.75;;
52488;SDS011;38399;52.236;104.280;2022-10-18T06:38:59;5.57;;;2.65;;
52488;SDS011;38399;52.236;104.280;2022-10-18T06:41:25;3.83;;;2.00;;
52488;SDS011;38399;52.236;104.280;2022-10-18T06:43:52;4.07;;;1.75;;
52488;SDS011;38399;52.236;104.280;2022-10-18T06:46:21;7.60;;;2.70;;
52488;SDS011;38399;52.236;104.280;2022-10-18T06:48:48;6.55;;;2.28;;
52488;SDS011;38399;52.236;104.280;2022-10-18T06:51:14;6.05;;;2.20;;
52488;SDS011;38399;52.236;104.280;2022-10-18T06:53:40;3.58;;;2.10;;
52488;SDS011;38399;52.236;104.280;2022-10-18T06:56:10;3.40;;;1.73;;
52488;SDS011;38399;52.236;104.280;2022-10-18T06:58:38;3.05;;;2.28;;
52488;SDS011;38399;52.236;104.280;2022-10-18T07:01:06;5.30;;;2.50;;
52488;SDS011;38399;52.236;104.280;2022-10-18T07:03:32;11.52;;;3.83;;
52488;SDS011;38399;52.236;104.280;2022-10-18T07:06:02;4.95;;;2.90;;
52488;SDS011;38399;52.236;104.280;2022-10-18T07:08:33;10.27;;;3.92;;
52488;SDS011;38399;52.236;104.280;2022-10-18T07:11:00;7.72;;;3.25;;
52488;SDS011;38399;52.236;104.280;2022-10-18T07:13:27;10.30;;;3.35;;
52488;SDS011;38399;52.236;104.280;2022-10-18T07:18:35;7.00;;;2.60;;
52488;SDS011;38399;52.236;104.280;2022-10-18T07:21:08;8.55;;;3.20;;
52488;SDS011;38399;52.236;104.280;2022-10-18T07:23:36;13.25;;;3.80;;
52488;SDS011;38399;52.236;104.280;2022-10-18T07:26:11;8.90;;;3.45;;
52488;SDS011;38399;52.236;104.280;2022-10-18T07:28:41;9.95;;;3.80;;
52488;SDS011;38399;52.236;104.280;2022-10-18T07:31:09;8.88;;;3.70;;
52488;SDS011;38399;52.236;104.280;2022-10-18T07:33:37;8.93;;;4.13;;
52488;SDS011;38399;52.236;104.280;2022-10-18T07:36:04;10.10;;;3.65;;
52488;SDS011;38399;52.236;104.280;2022-10-18T07:38:33;8.35;;;3.60;;
52488;SDS011;38399;52.236;104.280;2022-10-18T07:41:00;9.05;;;3.03;;
52488;SDS011;38399;52.236;104.280;2022-10-18T07:43:28;11.70;;;3.80;;
52488;SDS011;38399;52.236;104.280;2022-10-18T07:45:56;10.70;;;3.58;;
52488;SDS011;38399;52.236;104.280;2022-10-18T07:48:24;9.60;;;3.72;;
52488;SDS011;38399;52.236;104.280;2022-10-18T07:53:16;12.90;;;4.13;;
52488;SDS011;38399;52.236;104.280;2022-10-18T07:55:43;13.65;;;4.85;;
52488;SDS011;38399;52.236;104.280;2022-10-18T07:58:10;9.40;;;4.13;;
52488;SDS011;38399;52.236;104.280;2022-10-18T08:00:36;11.30;;;3.78;;
52488;SDS011;38399;52.236;104.280;2022-10-18T08:03:03;9.50;;;3.90;;
52488;SDS011;38399;52.236;104.280;2022-10-18T08:05:30;7.53;;;3.38;;
52488;SDS011;38399;52.236;104.280;2022-10-18T08:07:56;8.00;;;3.50;;
52488;SDS011;38399;52.236;104.280;2022-10-18T08:10:22;5.60;;;3.22;;
52488;SDS011;38399;52.236;104.280;2022-10-18T08:12:49;11.48;;;3.95;;
52488;SDS011;38399;52.236;104.280;2022-10-18T08:15:15;8.18;;;3.58;;
52488;SDS011;38399;52.236;104.280;2022-10-18T08:17:42;13.93;;;4.72;;
52488;SDS011;38399;52.236;104.280;2022-10-18T08:20:08;11.80;;;4.50;;
52488;SDS011;38399;52.236;104.280;2022-10-18T08:22:35;11.13;;;4.63;;
52488;SDS011;38399;52.236;104.280;2022-10-18T08:25:01;15.60;;;5.35;;
52488;SDS011;38399;52.236;104.280;2022-10-18T08:27:29;16.60;;;4.80;;
52488;SDS011;38399;52.236;104.280;2022-10-18T08:29:55;14.20;;;4.75;;
52488;SDS011;38399;52.236;104.280;2022-10-18T08:32:21;12.57;;;4.00;;
52488;SDS011;38399;52.236;104.280;2022-10-18T08:34:47;12.55;;;4.43;;
52488;SDS011;38399;52.236;104.280;2022-10-18T08:37:13;14.85;;;4.53;;
52488;SDS011;38399;52.236;104.280;2022-10-18T08:39:39;12.98;;;4.03;;
52488;SDS011;38399;52.236;104.280;2022-10-18T08:42:12;14.38;;;4.13;;
52488;SDS011;38399;52.236;104.280;2022-10-18T08:44:59;13.63;;;4.53;;
52488;SDS011;38399;52.236;104.280;2022-10-18T08:47:30;8.77;;;4.13;;
52488;SDS011;38399;52.236;104.280;2022-10-18T08:50:03;11.18;;;3.42;;
52488;SDS011;38399;52.236;104.280;2022-10-18T08:52:38;11.43;;;4.45;;
52488;SDS011;38399;52.236;104.280;2022-10-18T08:55:28;4.32;;;2.88;;
52488;SDS011;38399;52.236;104.280;2022-10-18T08:58:02;13.10;;;3.60;;
52488;SDS011;38399;52.236;104.280;2022-10-18T09:01:19;7.53;;;3.25;;
52488;SDS011;38399;52.236;104.280;2022-10-18T09:26:16;13.88;;;5.70;;
52488;SDS011;38399;52.236;104.280;2022-10-18T09:31:21;20.25;;;6.97;;
52488;SDS011;38399;52.236;104.280;2022-10-18T09:33:59;16.98;;;6.07;;
52488;SDS011;38399;52.236;104.280;2022-10-18T09:36:33;20.42;;;8.25;;
52488;SDS011;38399;52.236;104.280;2022-10-18T09:39:10;23.95;;;7.57;;
52488;SDS011;38399;52.236;104.280;2022-10-18T09:49:27;27.02;;;6.60;;
52488;SDS011;38399;52.236;104.280;2022-10-18T09:52:03;23.17;;;6.43;;
52488;SDS011;38399;52.236;104.280;2022-10-18T09:54:38;18.98;;;6.30;;
52488;SDS011;38399;52.236;104.280;2022-10-18T09:57:23;16.40;;;5.88;;
52488;SDS011;38399;52.236;104.280;2022-10-18T09:59:51;18.65;;;5.88;;
52488;SDS011;38399;52.236;104.280;2022-10-18T10:02:18;24.27;;;6.35;;
52488;SDS011;38399;52.236;104.280;2022-10-18T10:04:47;18.88;;;6.13;;
52488;SDS011;38399;52.236;104.280;2022-10-18T10:07:18;22.25;;;8.32;;
52488;SDS011;38399;52.236;104.280;2022-10-18T10:12:34;20.63;;;7.82;;
52488;SDS011;38399;52.236;104.280;2022-10-18T10:17:52;18.70;;;7.53;;
52488;SDS011;38399;52.236;104.280;2022-10-18T10:20:44;22.70;;;8.43;;
52488;SDS011;38399;52.236;104.280;2022-10-18T10:26:00;25.17;;;8.80;;
52488;SDS011;38399;52.236;104.280;2022-10-18T10:28:32;25.85;;;10.30;;
52488;SDS011;38399;52.236;104.280;2022-10-18T10:34:00;27.95;;;10.07;;
52488;SDS011;38399;52.236;104.280;2022-10-18T10:36:26;33.67;;;10.93;;
52488;SDS011;38399;52.236;104.280;2022-10-18T10:41:53;23.90;;;9.93;;
52488;SDS011;38399;52.236;104.280;2022-10-18T10:44:23;41.42;;;11.77;;
52488;SDS011;38399;52.236;104.280;2022-10-18T10:46:53;27.55;;;11.13;;
52488;SDS011;38399;52.236;104.280;2022-10-18T10:49:20;39.22;;;12.50;;
52488;SDS011;38399;52.236;104.280;2022-10-18T10:51:55;37.38;;;12.05;;
52488;SDS011;38399;52.236;104.280;2022-10-18T10:54:24;34.80;;;11.50;;
52488;SDS011;38399;52.236;104.280;2022-10-18T10:59:29;35.33;;;13.05;;
52488;SDS011;38399;52.236;104.280;2022-10-18T11:02:15;35.70;;;13.57;;
52488;SDS011;38399;52.236;104.280;2022-10-18T11:07:50;91.60;;;43.15;;
52488;SDS011;38399;52.236;104.280;2022-10-18T11:10:25;113.88;;;46.25;;
52488;SDS011;38399;52.236;104.280;2022-10-18T11:13:04;131.48;;;52.42;;
52488;SDS011;38399;52.236;104.280;2022-10-18T11:15:51;120.85;;;44.53;;
52488;SDS011;38399;52.236;104.280;2022-10-18T11:18:35;64.75;;;25.45;;
52488;SDS011;38399;52.236;104.280;2022-10-18T11:21:04;55.08;;;24.33;;
52488;SDS011;38399;52.236;104.280;2022-10-18T11:23:37;57.00;;;22.55;;
52488;SDS011;38399;52.236;104.280;2022-10-18T11:26:12;55.67;;;22.65;;
52488;SDS011;38399;52.236;104.280;2022-10-18T11:33:56;60.75;;;22.38;;
52488;SDS011;38399;52.236;104.280;2022-10-18T11:48:18;93.35;;;35.13;;
52488;SDS011;38399;52.236;104.280;2022-10-18T11:50:57;85.75;;;34.75;;
52488;SDS011;38399;52.236;104.280;2022-10-18T11:53:46;85.30;;;32.83;;
52488;SDS011;38399;52.236;104.280;2022-10-18T11:56:40;76.97;;;31.20;;
52488;SDS011;38399;52.236;104.280;2022-10-18T11:59:18;71.85;;;28.23;;
52488;SDS011;38399;52.236;104.280;2022-10-18T12:01:56;89.10;;;29.42;;
52488;SDS011;38399;52.236;104.280;2022-10-18T12:04:48;65.28;;;28.48;;
52488;SDS011;38399;52.236;104.280;2022-10-18T12:07:19;73.65;;;32.60;;
52488;SDS011;38399;52.236;104.280;2022-10-18T12:09:47;72.80;;;31.20;;
52488;SDS011;38399;52.236;104.280;2022-10-18T12:12:20;84.57;;;38.58;;
52488;SDS011;38399;52.236;104.280;2022-10-18T12:15:03;81.15;;;35.45;;
52488;SDS011;38399;52.236;104.280;2022-10-18T12:17:39;91.50;;;36.90;;
52488;SDS011;38399;52.236;104.280;2022-10-18T12:22:47;46.85;;;20.73;;
52488;SDS011;38399;52.236;104.280;2022-10-18T12:25:20;80.88;;;32.00;;
52488;SDS011;38399;52.236;104.280;2022-10-18T12:33:09;96.75;;;35.13;;
52488;SDS011;38399;52.236;104.280;2022-10-18T12:36:05;92.68;;;35.35;;
52488;SDS011;38399;52.236;104.280;2022-10-18T12:38:47;114.18;;;39.20;;
52488;SDS011;38399;52.236;104.280;2022-10-18T12:41:22;87.60;;;35.22;;
52488;SDS011;38399;52.236;104.280;2022-10-18T12:43:53;121.85;;;42.35;;
52488;SDS011;38399;52.236;104.280;2022-10-18T12:46:41;71.88;;;28.25;;
52488;SDS011;38399;52.236;104.280;2022-10-18T12:51:53;108.43;;;41.13;;
52488;SDS011;38399;52.236;104.280;2022-10-18T12:54:25;112.43;;;37.90;;
52488;SDS011;38399;52.236;104.280;2022-10-18T12:57:01;88.55;;;35.55;;
52488;SDS011;38399;52.236;104.280;2022-10-18T13:09:28;47.50;;;19.17;;
52488;SDS011;38399;52.236;104.280;2022-10-18T13:11:57;67.15;;;24.95;;
52488;SDS011;38399;52.236;104.280;2022-10-18T13:25:57;53.65;;;18.50;;
52488;SDS011;38399;52.236;104.280;2022-10-18T13:28:40;59.28;;;19.52;;
52488;SDS011;38399;52.236;104.280;2022-10-18T13:31:28;51.10;;;18.75;;
52488;SDS011;38399;52.236;104.280;2022-10-18T13:34:14;47.30;;;19.35;;
52488;SDS011;38399;52.236;104.280;2022-10-18T13:39:28;36.00;;;15.82;;
52488;SDS011;38399;52.236;104.280;2022-10-18T13:44:29;56.35;;;18.80;;
52488;SDS011;38399;52.236;104.280;2022-10-18T13:54:59;48.00;;;18.30;;
52488;SDS011;38399;52.236;104.280;2022-10-18T13:57:47;45.83;;;18.55;;
52488;SDS011;38399;52.236;104.280;2022-10-18T14:08:37;40.70;;;17.95;;
52488;SDS011;38399;52.236;104.280;2022-10-18T14:11:13;47.22;;;18.98;;
52488;SDS011;38399;52.236;104.280;2022-10-18T14:16:18;52.30;;;18.70;;
52488;SDS011;38399;52.236;104.280;2022-10-18T14:19:10;42.42;;;18.13;;
52488;SDS011;38399;52.236;104.280;2022-10-18T14:21:43;46.47;;;18.70;;
52488;SDS011;38399;52.236;104.280;2022-10-18T14:24:20;45.47;;;18.42;;
52488;SDS011;38399;52.236;104.280;2022-10-18T14:27:15;54.83;;;20.17;;
52488;SDS011;38399;52.236;104.280;2022-10-18T14:29:47;57.90;;;19.63;;
52488;SDS011;38399;52.236;104.280;2022-10-18T14:34:54;46.17;;;19.33;;
52488;SDS011;38399;52.236;104.280;2022-10-18T14:37:26;48.40;;;18.95;;
52488;SDS011;38399;52.236;104.280;2022-10-18T14:39:55;51.55;;;19.58;;
52488;SDS011;38399;52.236;104.280;2022-10-18T14:42:22;49.15;;;19.45;;
52488;SDS011;38399;52.236;104.280;2022-10-18T14:44:50;48.33;;;19.13;;
52488;SDS011;38399;52.236;104.280;2022-10-18T14:49:48;50.42;;;18.48;;
52488;SDS011;38399;52.236;104.280;2022-10-18T14:52:19;52.83;;;18.65;;
52488;SDS011;38399;52.236;104.280;2022-10-18T14:54:56;47.75;;;19.00;;
52488;SDS011;38399;52.236;104.280;2022-10-18T14:57:28;77.65;;;29.35;;
52488;SDS011;38399;52.236;104.280;2022-10-18T15:00:06;86.80;;;37.60;;
52488;SDS011;38399;52.236;104.280;2022-10-18T15:02:34;56.55;;;19.98;;
52488;SDS011;38399;52.236;104.280;2022-10-18T15:07:42;41.03;;;16.70;;
52488;SDS011;38399;52.236;104.280;2022-10-18T15:10:13;43.10;;;17.85;;
52488;SDS011;38399;52.236;104.280;2022-10-18T15:12:45;51.10;;;18.50;;
52488;SDS011;38399;52.236;104.280;2022-10-18T15:15:24;43.13;;;16.48;;
52488;SDS011;38399;52.236;104.280;2022-10-18T15:17:53;40.28;;;16.55;;
52488;SDS011;38399;52.236;104.280;2022-10-18T15:22:50;41.95;;;16.13;;
52488;SDS011;38399;52.236;104.280;2022-10-18T15:25:20;29.08;;;13.95;;
52488;SDS011;38399;52.236;104.280;2022-10-18T15:27:48;36.22;;;14.48;;
52488;SDS011;38399;52.236;104.280;2022-10-18T15:30:35;33.53;;;13.50;;
52488;SDS011;38399;52.236;104.280;2022-10-18T15:33:07;36.75;;;14.13;;
52488;SDS011;38399;52.236;104.280;2022-10-18T15:35:44;33.47;;;13.50;;
52488;SDS011;38399;52.236;104.280;2022-10-18T15:38:15;35.53;;;14.10;;
52488;SDS011;38399;52.236;104.280;2022-10-18T15:40:49;47.58;;;15.90;;
52488;SDS011;38399;52.236;104.280;2022-10-18T15:45:58;33.72;;;14.02;;
52488;SDS011;38399;52.236;104.280;2022-10-18T15:48:38;27.38;;;13.93;;
52488;SDS011;38399;52.236;104.280;2022-10-18T15:51:07;23.92;;;11.02;;
52488;SDS011;38399;52.236;104.280;2022-10-18T15:53:50;24.65;;;10.68;;
52488;SDS011;38399;52.236;104.280;2022-10-18T15:58:51;26.63;;;11.43;;
52488;SDS011;38399;52.236;104.280;2022-10-18T16:02:00;24.02;;;10.02;;
52488;SDS011;38399;52.236;104.280;2022-10-18T16:04:28;23.30;;;9.75;;
52488;SDS011;38399;52.236;104.280;2022-10-18T16:06:56;24.52;;;9.38;;
52488;SDS011;38399;52.236;104.280;2022-10-18T16:09:24;19.05;;;9.88;;
52488;SDS011;38399;52.236;104.280;2022-10-18T16:11:53;27.38;;;9.35;;
52488;SDS011;38399;52.236;104.280;2022-10-18T16:14:19;22.38;;;9.48;;
52488;SDS011;38399;52.236;104.280;2022-10-18T16:16:47;24.30;;;9.07;;
52488;SDS011;38399;52.236;104.280;2022-10-18T16:19:17;26.75;;;11.02;;
52488;SDS011;38399;52.236;104.280;2022-10-18T16:21:46;36.58;;;10.85;;
52488;SDS011;38399;52.236;104.280;2022-10-18T16:24:12;25.30;;;10.18;;
52488;SDS011;38399;52.236;104.280;2022-10-18T16:26:38;25.25;;;10.35;;
52488;SDS011;38399;52.236;104.280;2022-10-18T16:29:05;25.25;;;10.10;;
52488;SDS011;38399;52.236;104.280;2022-10-18T16:31:32;18.52;;;8.30;;
52488;SDS011;38399;52.236;104.280;2022-10-18T16:36:26;18.55;;;7.25;;
52488;SDS011;38399;52.236;104.280;2022-10-18T16:38:55;20.60;;;7.03;;
52488;SDS011;38399;52.236;104.280;2022-10-18T16:41:22;15.80;;;6.97;;
52488;SDS011;38399;52.236;104.280;2022-10-18T16:43:49;18.23;;;7.78;;
52488;SDS011;38399;52.236;104.280;2022-10-18T16:46:17;16.83;;;7.10;;
52488;SDS011;38399;52.236;104.280;2022-10-18T16:48:45;17.02;;;7.38;;
52488;SDS011;38399;52.236;104.280;2022-10-18T16:51:14;15.63;;;7.15;;
52488;SDS011;38399;52.236;104.280;2022-10-18T16:53:41;23.48;;;8.50;;
52488;SDS011;38399;52.236;104.280;2022-10-18T16:56:12;27.08;;;11.02;;
52488;SDS011;38399;52.236;104.280;2022-10-18T16:58:41;22.70;;;11.48;;
52488;SDS011;38399;52.236;104.280;2022-10-18T17:01:12;28.63;;;11.00;;
52488;SDS011;38399;52.236;104.280;2022-10-18T17:03:40;17.15;;;7.20;;
52488;SDS011;38399;52.236;104.280;2022-10-18T17:06:09;16.83;;;6.93;;
52488;SDS011;38399;52.236;104.280;2022-10-18T17:08:46;12.48;;;5.47;;
52488;SDS011;38399;52.236;104.280;2022-10-18T17:13:40;12.85;;;6.38;;
52488;SDS011;38399;52.236;104.280;2022-10-18T17:16:08;14.60;;;6.40;;
52488;SDS011;38399;52.236;104.280;2022-10-18T17:18:51;13.60;;;6.20;;
52488;SDS011;38399;52.236;104.280;2022-10-18T17:21:17;16.52;;;6.88;;
52488;SDS011;38399;52.236;104.280;2022-10-18T17:23:43;13.73;;;7.22;;
52488;SDS011;38399;52.236;104.280;2022-10-18T17:26:14;17.85;;;7.95;;
52488;SDS011;38399;52.236;104.280;2022-10-18T17:28:41;16.75;;;8.18;;
52488;SDS011;38399;52.236;104.280;2022-10-18T17:31:08;16.67;;;8.48;;
52488;SDS011;38399;52.236;104.280;2022-10-18T17:33:34;19.63;;;8.63;;
52488;SDS011;38399;52.236;104.280;2022-10-18T17:36:01;21.63;;;9.80;;
52488;SDS011;38399;52.236;104.280;2022-10-18T17:38:27;19.80;;;9.68;;
52488;SDS011;38399;52.236;104.280;2022-10-18T17:40:53;25.70;;;10.05;;
52488;SDS011;38399;52.236;104.280;2022-10-18T17:43:19;20.48;;;9.15;;
52488;SDS011;38399;52.236;104.280;2022-10-18T17:45:46;18.77;;;8.85;;
52488;SDS011;38399;52.236;104.280;2022-10-18T17:48:19;17.25;;;9.73;;
52488;SDS011;38399;52.236;104.280;2022-10-18T17:50:46;26.42;;;9.65;;
52488;SDS011;38399;52.236;104.280;2022-10-18T17:53:12;19.23;;;9.18;;
52488;SDS011;38399;52.236;104.280;2022-10-18T17:55:39;17.95;;;8.93;;
52488;SDS011;38399;52.236;104.280;2022-10-18T17:58:05;20.23;;;9.20;;
52488;SDS011;38399;52.236;104.280;2022-10-18T18:00:31;22.85;;;9.48;;